Pattaya, Thailand

11:44 PM ICT on August 25, 2016 (GMT +0700)
Royal Varuna Yacht Club | | Change Station

Elev 30 ft 12.92 °N, 100.86 °E | Updated 5 seconds ago

Partly Cloudy
Partly Cloudy
85.5 °F
Feels Like 100 °F
N
11.5
Wind Variable Wind from SSE
Gusts 11.5 mph

Today
High -- | Low -- °F
--% Chance of Precip.
Yesterday
High -- | Low -- °F
Precip. -- in
Pressure 29.74 in
Visibility 3.7 miles
Clouds Few 2000 ft
Heat Index 100 °F
Dew Point 80 °F
Humidity 84%
Rainfall in
Snow Depth Not available.
6:05 AM 6:31 PM
Last Quarter, 44% visible
METAR VTBU 251630Z 21006KT 6000 FEW020 29/24 Q1007 NOSIG
Pressure 29.74 in
Visibility 3.7 miles
Clouds Few 2000 ft
Heat Index 100 °F
Dew Point 80 °F
Humidity 84%
Rainfall in
Snow Depth Not available.
6:05 AM 6:31 PM
Last Quarter, 44% visible
METAR VTBU 251630Z 21006KT 6000 FEW020 29/24 Q1007 NOSIG

10-Day Weather Forecast

No radar image for this location.
×

Almanac

Astronomy

Aug. 25, 2016 Rise Set
Actual Time
Civil Twilight
Nautical Twilight
Astronomical Twilight
Moon
Length of Visible Light
Length of Day
Tomorrow will be .
, % of the Moon is Illuminated

Today's Extremes

Country Highs Country Lows

Community

WunderPhotos

Upload Photos

1,934,869 photos uploaded!

WunderBlog® & News

Nearby

Air Quality

  Air Quality AQ Index Pollutant
Not available.

Snow Depth

Station Depth Elevation

Earthquake Activity

City Distance Mag. Time & Date
Minimum magnitude displayed is 2.5.

Coastal Water Temperatures

Place Temperature

Stations

Nearby Weather Stations

Station Location Temp. Windchill Dew Point Humidity Wind Precip. Elev Updated Type